sensor_id;sensor_type;location;lat;lon;timestamp;pressure;altitude;pressure_sealevel;temperature;humidity
37848;BME280;23688;33.130;-117.188;2022-11-02T00:00:17;99289.31;;;17.22;75.34
37848;BME280;23688;33.130;-117.188;2022-11-02T00:02:43;99287.66;;;17.33;75.05
37848;BME280;23688;33.130;-117.188;2022-11-02T00:05:16;99278.53;;;16.97;76.17
37848;BME280;23688;33.130;-117.188;2022-11-02T00:07:52;99286.19;;;16.82;77.16
37848;BME280;23688;33.130;-117.188;2022-11-02T00:10:19;99290.41;;;16.74;77.88
37848;BME280;23688;33.130;-117.188;2022-11-02T00:12:47;99291.41;;;16.82;77.21
37848;BME280;23688;33.130;-117.188;2022-11-02T00:15:14;99291.44;;;16.83;77.20
37848;BME280;23688;33.130;-117.188;2022-11-02T00:17:43;99286.41;;;16.38;78.66
37848;BME280;23688;33.130;-117.188;2022-11-02T00:20:13;99305.38;;;16.21;80.04
37848;BME280;23688;33.130;-117.188;2022-11-02T00:22:41;99312.84;;;15.97;81.53
37848;BME280;23688;33.130;-117.188;2022-11-02T00:25:10;99317.06;;;15.89;81.89
37848;BME280;23688;33.130;-117.188;2022-11-02T00:27:47;99322.44;;;15.96;82.16
37848;BME280;23688;33.130;-117.188;2022-11-02T00:30:14;99321.66;;;16.00;81.74
37848;BME280;23688;33.130;-117.188;2022-11-02T00:32:40;99308.13;;;15.76;81.83
37848;BME280;23688;33.130;-117.188;2022-11-02T00:35:07;99325.81;;;15.89;82.19
37848;BME280;23688;33.130;-117.188;2022-11-02T00:37:36;99323.69;;;15.68;82.74
37848;BME280;23688;33.130;-117.188;2022-11-02T00:40:03;99318.91;;;15.93;81.59
37848;BME280;23688;33.130;-117.188;2022-11-02T00:42:30;99329.25;;;15.85;81.86
37848;BME280;23688;33.130;-117.188;2022-11-02T00:44:56;99334.91;;;15.62;83.02
37848;BME280;23688;33.130;-117.188;2022-11-02T00:47:22;99337.41;;;15.56;83.81
37848;BME280;23688;33.130;-117.188;2022-11-02T00:49:49;99333.09;;;15.58;83.98
37848;BME280;23688;33.130;-117.188;2022-11-02T00:52:15;99334.31;;;15.77;82.98
37848;BME280;23688;33.130;-117.188;2022-11-02T00:54:41;99342.81;;;15.66;83.29
37848;BME280;23688;33.130;-117.188;2022-11-02T00:57:08;99343.34;;;15.48;83.96
37848;BME280;23688;33.130;-117.188;2022-11-02T00:59:35;99327.22;;;15.26;84.28
37848;BME280;23688;33.130;-117.188;2022-11-02T01:02:06;99362.91;;;15.67;83.16
37848;BME280;23688;33.130;-117.188;2022-11-02T01:04:34;99362.63;;;15.98;81.57
37848;BME280;23688;33.130;-117.188;2022-11-02T01:07:02;99360.72;;;15.90;81.83
37848;BME280;23688;33.130;-117.188;2022-11-02T01:09:28;99357.22;;;15.88;82.13
37848;BME280;23688;33.130;-117.188;2022-11-02T01:11:55;99369.31;;;15.82;82.49
37848;BME280;23688;33.130;-117.188;2022-11-02T01:14:22;99380.19;;;15.58;83.72
37848;BME280;23688;33.130;-117.188;2022-11-02T01:16:48;99380.84;;;15.48;84.52
37848;BME280;23688;33.130;-117.188;2022-11-02T01:19:14;99393.81;;;15.42;84.92
37848;BME280;23688;33.130;-117.188;2022-11-02T01:21:41;99396.41;;;15.40;85.07
37848;BME280;23688;33.130;-117.188;2022-11-02T01:24:07;99390.44;;;15.46;84.69
37848;BME280;23688;33.130;-117.188;2022-11-02T01:26:35;99409.72;;;15.53;83.69
37848;BME280;23688;33.130;-117.188;2022-11-02T01:29:01;99416.03;;;15.62;83.46
37848;BME280;23688;33.130;-117.188;2022-11-02T01:31:28;99419.00;;;15.79;82.25
37848;BME280;23688;33.130;-117.188;2022-11-02T01:33:54;99415.56;;;15.82;82.12
37848;BME280;23688;33.130;-117.188;2022-11-02T01:36:20;99403.94;;;15.69;81.94
37848;BME280;23688;33.130;-117.188;2022-11-02T01:38:47;99425.31;;;15.48;82.87
37848;BME280;23688;33.130;-117.188;2022-11-02T01:41:16;99427.47;;;15.25;84.30
37848;BME280;23688;33.130;-117.188;2022-11-02T01:43:45;99429.16;;;15.23;84.77
37848;BME280;23688;33.130;-117.188;2022-11-02T01:46:18;99425.53;;;15.15;85.54
37848;BME280;23688;33.130;-117.188;2022-11-02T01:48:52;99438.69;;;15.19;85.47
37848;BME280;23688;33.130;-117.188;2022-11-02T01:51:34;99448.47;;;15.28;84.73
37848;BME280;23688;33.130;-117.188;2022-11-02T01:54:08;99447.88;;;15.41;84.35
37848;BME280;23688;33.130;-117.188;2022-11-02T01:56:37;99450.94;;;15.63;83.01
37848;BME280;23688;33.130;-117.188;2022-11-02T01:59:09;99448.19;;;15.57;82.45
37848;BME280;23688;33.130;-117.188;2022-11-02T02:01:38;99461.13;;;15.51;82.27
37848;BME280;23688;33.130;-117.188;2022-11-02T02:04:04;99461.97;;;15.48;82.74
37848;BME280;23688;33.130;-117.188;2022-11-02T02:06:31;99459.53;;;15.56;81.89
37848;BME280;23688;33.130;-117.188;2022-11-02T02:09:02;99473.16;;;15.82;80.71
37848;BME280;23688;33.130;-117.188;2022-11-02T02:11:32;99459.91;;;15.73;80.12
37848;BME280;23688;33.130;-117.188;2022-11-02T02:30:03;99458.97;;;15.30;79.53
37848;BME280;23688;33.130;-117.188;2022-11-02T02:32:48;99466.00;;;15.32;79.27
37848;BME280;23688;33.130;-117.188;2022-11-02T02:35:26;99462.72;;;15.43;79.00
37848;BME280;23688;33.130;-117.188;2022-11-02T02:37:59;99438.75;;;15.65;77.63
37848;BME280;23688;33.130;-117.188;2022-11-02T02:40:35;99454.97;;;15.90;76.92
37848;BME280;23688;33.130;-117.188;2022-11-02T02:43:12;99457.53;;;15.85;76.73
37848;BME280;23688;33.130;-117.188;2022-11-02T02:45:49;99456.03;;;15.99;76.18
37848;BME280;23688;33.130;-117.188;2022-11-02T02:48:19;99463.13;;;16.05;74.37
37848;BME280;23688;33.130;-117.188;2022-11-02T02:50:54;99463.81;;;15.96;71.72
37848;BME280;23688;33.130;-117.188;2022-11-02T02:53:27;99449.88;;;15.96;70.54
37848;BME280;23688;33.130;-117.188;2022-11-02T02:55:54;99455.47;;;16.14;70.15
37848;BME280;23688;33.130;-117.188;2022-11-02T02:58:30;99453.81;;;16.21;69.14
37848;BME280;23688;33.130;-117.188;2022-11-02T03:00:58;99453.94;;;16.27;69.16
37848;BME280;23688;33.130;-117.188;2022-11-02T03:03:27;99457.47;;;16.31;68.59
37848;BME280;23688;33.130;-117.188;2022-11-02T03:08:47;99465.53;;;16.43;67.80
37848;BME280;23688;33.130;-117.188;2022-11-02T03:11:19;99466.41;;;16.42;67.39
37848;BME280;23688;33.130;-117.188;2022-11-02T03:17:11;99477.63;;;16.35;67.00
37848;BME280;23688;33.130;-117.188;2022-11-02T03:19:50;99482.09;;;16.39;67.71
37848;BME280;23688;33.130;-117.188;2022-11-02T03:25:47;99485.72;;;16.47;68.20
37848;BME280;23688;33.130;-117.188;2022-11-02T03:28:39;99474.22;;;16.40;68.52
37848;BME280;23688;33.130;-117.188;2022-11-02T03:31:56;99489.09;;;16.40;68.64
37848;BME280;23688;33.130;-117.188;2022-11-02T03:36:37;99494.16;;;16.29;68.50
37848;BME280;23688;33.130;-117.188;2022-11-02T03:39:07;99497.31;;;16.13;68.07
37848;BME280;23688;33.130;-117.188;2022-11-02T03:41:37;99489.50;;;16.14;68.60
37848;BME280;23688;33.130;-117.188;2022-11-02T03:44:09;99495.47;;;16.07;68.64
37848;BME280;23688;33.130;-117.188;2022-11-02T03:46:38;99494.66;;;16.10;68.56
37848;BME280;23688;33.130;-117.188;2022-11-02T03:49:11;99492.88;;;16.09;68.25
37848;BME280;23688;33.130;-117.188;2022-11-02T03:51:41;99490.38;;;16.15;68.59
37848;BME280;23688;33.130;-117.188;2022-11-02T03:54:18;99474.50;;;16.05;68.58
37848;BME280;23688;33.130;-117.188;2022-11-02T03:56:52;99484.22;;;16.13;68.60
37848;BME280;23688;33.130;-117.188;2022-11-02T03:59:21;99489.41;;;16.10;68.44
37848;BME280;23688;33.130;-117.188;2022-11-02T04:01:50;99494.53;;;16.03;68.28
37848;BME280;23688;33.130;-117.188;2022-11-02T04:04:17;99487.53;;;16.04;67.48
37848;BME280;23688;33.130;-117.188;2022-11-02T04:06:44;99484.00;;;16.02;66.88
37848;BME280;23688;33.130;-117.188;2022-11-02T04:09:11;99491.81;;;15.99;66.55
37848;BME280;23688;33.130;-117.188;2022-11-02T04:11:38;99496.03;;;15.91;66.25
37848;BME280;23688;33.130;-117.188;2022-11-02T04:14:25;99504.66;;;15.87;66.21
37848;BME280;23688;33.130;-117.188;2022-11-02T04:17:04;99506.16;;;15.74;66.53
37848;BME280;23688;33.130;-117.188;2022-11-02T04:19:49;99515.81;;;15.76;66.54
37848;BME280;23688;33.130;-117.188;2022-11-02T04:22:17;99513.97;;;15.72;67.17
37848;BME280;23688;33.130;-117.188;2022-11-02T04:25:02;99514.81;;;15.71;66.78
37848;BME280;23688;33.130;-117.188;2022-11-02T04:27:45;99519.06;;;15.68;67.78
37848;BME280;23688;33.130;-117.188;2022-11-02T04:30:14;99534.81;;;15.69;67.95
37848;BME280;23688;33.130;-117.188;2022-11-02T04:32:42;99530.50;;;15.70;67.82
37848;BME280;23688;33.130;-117.188;2022-11-02T04:35:27;99531.41;;;15.72;67.93
37848;BME280;23688;33.130;-117.188;2022-11-02T04:37:54;99538.19;;;15.65;67.91
37848;BME280;23688;33.130;-117.188;2022-11-02T04:40:41;99544.09;;;15.53;67.78
37848;BME280;23688;33.130;-117.188;2022-11-02T04:43:09;99521.88;;;15.36;67.71
37848;BME280;23688;33.130;-117.188;2022-11-02T04:45:35;99539.63;;;15.49;66.99
37848;BME280;23688;33.130;-117.188;2022-11-02T04:48:05;99535.22;;;15.48;66.44
37848;BME280;23688;33.130;-117.188;2022-11-02T04:50:33;99543.88;;;15.46;66.35
37848;BME280;23688;33.130;-117.188;2022-11-02T04:53:04;99529.66;;;15.33;65.91
37848;BME280;23688;33.130;-117.188;2022-11-02T04:55:32;99540.22;;;15.37;65.80
37848;BME280;23688;33.130;-117.188;2022-11-02T04:57:59;99540.94;;;15.30;65.96
37848;BME280;23688;33.130;-117.188;2022-11-02T05:00:26;99545.22;;;15.28;66.01
37848;BME280;23688;33.130;-117.188;2022-11-02T05:02:52;99545.13;;;15.24;66.15
37848;BME280;23688;33.130;-117.188;2022-11-02T05:05:18;99543.53;;;15.30;65.96
37848;BME280;23688;33.130;-117.188;2022-11-02T05:07:45;99540.81;;;15.24;65.98
37848;BME280;23688;33.130;-117.188;2022-11-02T05:10:12;99554.47;;;15.12;66.41
37848;BME280;23688;33.130;-117.188;2022-11-02T05:12:38;99548.38;;;15.13;66.62
37848;BME280;23688;33.130;-117.188;2022-11-02T05:15:05;99555.13;;;15.04;66.80
37848;BME280;23688;33.130;-117.188;2022-11-02T05:17:31;99554.00;;;14.94;67.09
37848;BME280;23688;33.130;-117.188;2022-11-02T05:19:58;99561.72;;;14.89;67.42
37848;BME280;23688;33.130;-117.188;2022-11-02T05:22:24;99572.28;;;14.92;67.51
37848;BME280;23688;33.130;-117.188;2022-11-02T05:24:52;99569.25;;;14.77;67.83
37848;BME280;23688;33.130;-117.188;2022-11-02T05:27:19;99562.31;;;14.77;67.72
37848;BME280;23688;33.130;-117.188;2022-11-02T05:29:47;99569.03;;;14.68;68.50
37848;BME280;23688;33.130;-117.188;2022-11-02T05:32:13;99548.56;;;14.51;68.70
37848;BME280;23688;33.130;-117.188;2022-11-02T05:34:39;99561.78;;;14.56;68.98
37848;BME280;23688;33.130;-117.188;2022-11-02T05:37:06;99575.06;;;14.65;68.52
37848;BME280;23688;33.130;-117.188;2022-11-02T05:39:32;99574.09;;;14.62;68.96
37848;BME280;23688;33.130;-117.188;2022-11-02T05:42:02;99567.91;;;14.58;68.80
37848;BME280;23688;33.130;-117.188;2022-11-02T05:44:28;99575.97;;;14.66;68.62
37848;BME280;23688;33.130;-117.188;2022-11-02T05:46:55;99585.38;;;14.59;68.83
37848;BME280;23688;33.130;-117.188;2022-11-02T05:49:21;99588.25;;;14.70;68.59
37848;BME280;23688;33.130;-117.188;2022-11-02T05:51:47;99588.22;;;14.68;67.91
37848;BME280;23688;33.130;-117.188;2022-11-02T05:54:14;99588.97;;;14.64;68.36
37848;BME280;23688;33.130;-117.188;2022-11-02T05:56:40;99594.25;;;14.66;68.34
37848;BME280;23688;33.130;-117.188;2022-11-02T05:59:06;99607.31;;;14.66;68.39
37848;BME280;23688;33.130;-117.188;2022-11-02T06:01:33;99597.75;;;14.66;68.01
37848;BME280;23688;33.130;-117.188;2022-11-02T06:03:59;99599.63;;;14.72;68.16
37848;BME280;23688;33.130;-117.188;2022-11-02T06:06:25;99596.88;;;14.66;68.91
37848;BME280;23688;33.130;-117.188;2022-11-02T06:08:52;99600.38;;;14.68;69.03
37848;BME280;23688;33.130;-117.188;2022-11-02T06:11:18;99593.53;;;14.71;69.10
37848;BME280;23688;33.130;-117.188;2022-11-02T06:13:48;99598.88;;;14.76;69.66
37848;BME280;23688;33.130;-117.188;2022-11-02T06:16:17;99596.19;;;14.73;69.81
37848;BME280;23688;33.130;-117.188;2022-11-02T06:18:43;99609.31;;;14.76;70.06
37848;BME280;23688;33.130;-117.188;2022-11-02T06:21:12;99604.94;;;14.75;70.04
37848;BME280;23688;33.130;-117.188;2022-11-02T06:23:39;99586.63;;;14.75;69.90
37848;BME280;23688;33.130;-117.188;2022-11-02T06:26:08;99587.38;;;14.69;69.83
37848;BME280;23688;33.130;-117.188;2022-11-02T06:28:38;99588.28;;;14.71;70.02
37848;BME280;23688;33.130;-117.188;2022-11-02T06:31:06;99593.59;;;14.74;69.54
37848;BME280;23688;33.130;-117.188;2022-11-02T06:33:32;99587.41;;;14.71;70.07
37848;BME280;23688;33.130;-117.188;2022-11-02T06:35:59;99590.06;;;14.72;69.80
37848;BME280;23688;33.130;-117.188;2022-11-02T06:38:25;99580.34;;;14.67;69.65
37848;BME280;23688;33.130;-117.188;2022-11-02T06:40:57;99594.25;;;14.66;70.03
37848;BME280;23688;33.130;-117.188;2022-11-02T06:43:24;99592.78;;;14.75;69.95
37848;BME280;23688;33.130;-117.188;2022-11-02T06:45:56;99596.38;;;14.81;69.56
37848;BME280;23688;33.130;-117.188;2022-11-02T06:48:24;99575.34;;;14.76;69.06
37848;BME280;23688;33.130;-117.188;2022-11-02T06:50:51;99584.31;;;14.87;68.99
37848;BME280;23688;33.130;-117.188;2022-11-02T06:53:17;99573.84;;;14.86;68.63
37848;BME280;23688;33.130;-117.188;2022-11-02T06:55:44;99563.53;;;14.92;67.96
37848;BME280;23688;33.130;-117.188;2022-11-02T06:58:10;99579.41;;;14.99;67.44
37848;BME280;23688;33.130;-117.188;2022-11-02T07:00:36;99567.38;;;15.05;66.84
37848;BME280;23688;33.130;-117.188;2022-11-02T07:03:05;99572.78;;;15.14;66.65
37848;BME280;23688;33.130;-117.188;2022-11-02T07:05:32;99569.31;;;15.13;66.48
37848;BME280;23688;33.130;-117.188;2022-11-02T07:07:58;99576.19;;;15.10;66.73
37848;BME280;23688;33.130;-117.188;2022-11-02T07:10:25;99565.91;;;15.17;66.75
37848;BME280;23688;33.130;-117.188;2022-11-02T07:12:53;99575.56;;;15.20;66.89
37848;BME280;23688;33.130;-117.188;2022-11-02T07:15:24;99574.69;;;15.19;66.83
37848;BME280;23688;33.130;-117.188;2022-11-02T07:17:52;99573.00;;;15.23;66.31
37848;BME280;23688;33.130;-117.188;2022-11-02T07:20:18;99567.66;;;15.17;66.35
37848;BME280;23688;33.130;-117.188;2022-11-02T07:23:05;99575.41;;;15.14;66.24
37848;BME280;23688;33.130;-117.188;2022-11-02T07:25:32;99573.72;;;15.16;66.34
37848;BME280;23688;33.130;-117.188;2022-11-02T07:27:59;99573.66;;;15.13;66.63
37848;BME280;23688;33.130;-117.188;2022-11-02T07:30:28;99576.25;;;15.13;66.63
37848;BME280;23688;33.130;-117.188;2022-11-02T07:32:55;99563.13;;;15.10;66.62
37848;BME280;23688;33.130;-117.188;2022-11-02T07:35:23;99577.78;;;15.03;67.30
37848;BME280;23688;33.130;-117.188;2022-11-02T07:37:57;99569.06;;;15.03;67.31
37848;BME280;23688;33.130;-117.188;2022-11-02T07:40:25;99581.44;;;15.10;67.30
37848;BME280;23688;33.130;-117.188;2022-11-02T07:42:52;99576.00;;;15.02;67.70
37848;BME280;23688;33.130;-117.188;2022-11-02T07:45:20;99566.56;;;15.07;67.48
37848;BME280;23688;33.130;-117.188;2022-11-02T07:47:47;99573.41;;;15.04;67.56
37848;BME280;23688;33.130;-117.188;2022-11-02T07:50:17;99575.22;;;15.05;67.56
37848;BME280;23688;33.130;-117.188;2022-11-02T07:52:48;99578.81;;;15.10;67.66
37848;BME280;23688;33.130;-117.188;2022-11-02T07:55:17;99565.75;;;15.10;67.48
37848;BME280;23688;33.130;-117.188;2022-11-02T07:57:55;99567.25;;;15.02;67.57
37848;BME280;23688;33.130;-117.188;2022-11-02T08:00:24;99577.59;;;14.97;68.08
37848;BME280;23688;33.130;-117.188;2022-11-02T08:02:54;99579.00;;;14.83;68.59
37848;BME280;23688;33.130;-117.188;2022-11-02T08:05:21;99568.38;;;14.76;68.68
37848;BME280;23688;33.130;-117.188;2022-11-02T08:07:56;99570.38;;;14.87;68.52
37848;BME280;23688;33.130;-117.188;2022-11-02T08:10:23;99576.97;;;15.06;68.04
37848;BME280;23688;33.130;-117.188;2022-11-02T08:12:49;99556.81;;;15.02;67.56
37848;BME280;23688;33.130;-117.188;2022-11-02T08:15:15;99565.84;;;15.14;67.17
37848;BME280;23688;33.130;-117.188;2022-11-02T08:17:42;99570.16;;;15.12;67.26
37848;BME280;23688;33.130;-117.188;2022-11-02T08:20:09;99579.06;;;15.20;67.23
37848;BME280;23688;33.130;-117.188;2022-11-02T08:22:39;99575.47;;;15.15;67.26
37848;BME280;23688;33.130;-117.188;2022-11-02T08:25:06;99591.50;;;15.31;66.64
37848;BME280;23688;33.130;-117.188;2022-11-02T08:27:33;99566.34;;;15.36;66.17
37848;BME280;23688;33.130;-117.188;2022-11-02T08:29:59;99573.41;;;15.40;66.00
37848;BME280;23688;33.130;-117.188;2022-11-02T08:32:26;99573.28;;;15.34;66.01
37848;BME280;23688;33.130;-117.188;2022-11-02T08:34:52;99572.59;;;15.43;66.17
37848;BME280;23688;33.130;-117.188;2022-11-02T08:37:18;99553.25;;;15.34;65.94
37848;BME280;23688;33.130;-117.188;2022-11-02T08:39:44;99575.31;;;15.47;66.18
37848;BME280;23688;33.130;-117.188;2022-11-02T08:42:11;99576.97;;;15.42;66.13
37848;BME280;23688;33.130;-117.188;2022-11-02T08:44:37;99582.13;;;15.40;66.46
37848;BME280;23688;33.130;-117.188;2022-11-02T08:47:03;99574.38;;;15.44;66.32
37848;BME280;23688;33.130;-117.188;2022-11-02T08:49:30;99565.63;;;15.41;66.43
37848;BME280;23688;33.130;-117.188;2022-11-02T08:51:56;99567.47;;;15.47;66.37
37848;BME280;23688;33.130;-117.188;2022-11-02T08:54:22;99572.81;;;15.52;66.25
37848;BME280;23688;33.130;-117.188;2022-11-02T08:56:48;99574.56;;;15.53;66.08
37848;BME280;23688;33.130;-117.188;2022-11-02T08:59:15;99571.06;;;15.52;66.02
37848;BME280;23688;33.130;-117.188;2022-11-02T09:01:41;99570.25;;;15.55;66.14
37848;BME280;23688;33.130;-117.188;2022-11-02T09:04:07;99574.69;;;15.57;66.19
37848;BME280;23688;33.130;-117.188;2022-11-02T09:06:33;99578.22;;;15.59;66.25
37848;BME280;23688;33.130;-117.188;2022-11-02T09:09:00;99576.56;;;15.63;65.98
37848;BME280;23688;33.130;-117.188;2022-11-02T09:11:26;99565.72;;;15.48;66.25
37848;BME280;23688;33.130;-117.188;2022-11-02T09:13:52;99570.25;;;15.53;66.46
37848;BME280;23688;33.130;-117.188;2022-11-02T09:16:19;99557.72;;;15.40;66.52
37848;BME280;23688;33.130;-117.188;2022-11-02T09:18:45;99575.03;;;15.35;67.21
37848;BME280;23688;33.130;-117.188;2022-11-02T09:21:11;99564.69;;;15.41;66.92
37848;BME280;23688;33.130;-117.188;2022-11-02T09:23:37;99554.94;;;15.32;67.05
37848;BME280;23688;33.130;-117.188;2022-11-02T09:26:04;99568.25;;;15.43;66.90
37848;BME280;23688;33.130;-117.188;2022-11-02T09:28:30;99573.56;;;15.46;66.71
37848;BME280;23688;33.130;-117.188;2022-11-02T09:30:56;99560.50;;;15.48;66.76
37848;BME280;23688;33.130;-117.188;2022-11-02T09:33:22;99544.69;;;15.41;66.92
37848;BME280;23688;33.130;-117.188;2022-11-02T09:35:49;99557.81;;;15.45;66.80
37848;BME280;23688;33.130;-117.188;2022-11-02T09:38:16;99558.75;;;15.47;66.74
37848;BME280;23688;33.130;-117.188;2022-11-02T09:43:45;99545.50;;;15.39;66.72
37848;BME280;23688;33.130;-117.188;2022-11-02T09:46:23;99559.56;;;15.46;66.44
37848;BME280;23688;33.130;-117.188;2022-11-02T09:49:04;99548.84;;;15.33;66.72
37848;BME280;23688;33.130;-117.188;2022-11-02T09:54:28;99556.19;;;15.50;66.36
37848;BME280;23688;33.130;-117.188;2022-11-02T09:57:05;99558.75;;;15.48;66.40
37848;BME280;23688;33.130;-117.188;2022-11-02T09:59:34;99559.47;;;15.41;66.78
37848;BME280;23688;33.130;-117.188;2022-11-02T10:05:07;99560.63;;;15.52;66.64
37848;BME280;23688;33.130;-117.188;2022-11-02T10:08:05;99560.56;;;15.51;66.41
37848;BME280;23688;33.130;-117.188;2022-11-02T10:18:48;99572.38;;;15.70;66.41
37848;BME280;23688;33.130;-117.188;2022-11-02T10:21:24;99566.22;;;15.69;66.23
37848;BME280;23688;33.130;-117.188;2022-11-02T10:23:59;99554.91;;;15.70;66.12
37848;BME280;23688;33.130;-117.188;2022-11-02T10:26:32;99562.00;;;15.73;65.95
37848;BME280;23688;33.130;-117.188;2022-11-02T10:29:59;99562.88;;;15.73;65.76
37848;BME280;23688;33.130;-117.188;2022-11-02T10:32:04;99554.72;;;15.61;66.06
37848;BME280;23688;33.130;-117.188;2022-11-02T10:34:32;99557.06;;;15.49;66.63
37848;BME280;23688;33.130;-117.188;2022-11-02T10:37:27;99564.25;;;15.59;66.39
37848;BME280;23688;33.130;-117.188;2022-11-02T10:43:05;99558.09;;;15.57;66.89
37848;BME280;23688;33.130;-117.188;2022-11-02T10:48:47;99565.50;;;15.75;66.29
37848;BME280;23688;33.130;-117.188;2022-11-02T10:51:15;99558.56;;;15.75;66.28
37848;BME280;23688;33.130;-117.188;2022-11-02T10:53:44;99568.94;;;15.72;66.24
37848;BME280;23688;33.130;-117.188;2022-11-02T10:56:20;99561.00;;;15.69;66.45
37848;BME280;23688;33.130;-117.188;2022-11-02T11:01:27;99562.88;;;15.73;66.14
37848;BME280;23688;33.130;-117.188;2022-11-02T11:03:59;99553.22;;;15.71;66.26
37848;BME280;23688;33.130;-117.188;2022-11-02T11:06:33;99555.84;;;15.72;66.15
37848;BME280;23688;33.130;-117.188;2022-11-02T11:09:48;99544.34;;;15.28;67.55
37848;BME280;23688;33.130;-117.188;2022-11-02T11:14:48;99543.41;;;15.24;68.42
37848;BME280;23688;33.130;-117.188;2022-11-02T11:17:19;99552.13;;;15.25;68.52
37848;BME280;23688;33.130;-117.188;2022-11-02T11:19:56;99545.81;;;15.16;68.91
37848;BME280;23688;33.130;-117.188;2022-11-02T11:22:36;99548.38;;;15.13;68.94
37848;BME280;23688;33.130;-117.188;2022-11-02T11:27:49;99542.84;;;15.37;68.37
37848;BME280;23688;33.130;-117.188;2022-11-02T11:30:26;99546.53;;;15.47;67.99
37848;BME280;23688;33.130;-117.188;2022-11-02T11:32:54;99539.56;;;15.48;68.11
37848;BME280;23688;33.130;-117.188;2022-11-02T11:35:22;99551.63;;;15.41;68.47
37848;BME280;23688;33.130;-117.188;2022-11-02T11:37:57;99539.19;;;15.29;70.00
37848;BME280;23688;33.130;-117.188;2022-11-02T11:40:25;99547.25;;;15.40;70.45
37848;BME280;23688;33.130;-117.188;2022-11-02T11:42:53;99551.72;;;15.46;70.80
37848;BME280;23688;33.130;-117.188;2022-11-02T11:47:59;99542.19;;;15.46;71.99
37848;BME280;23688;33.130;-117.188;2022-11-02T11:50:27;99543.94;;;15.47;72.20
37848;BME280;23688;33.130;-117.188;2022-11-02T11:55:49;99542.72;;;15.33;73.46
37848;BME280;23688;33.130;-117.188;2022-11-02T11:58:23;99548.78;;;15.30;74.20
37848;BME280;23688;33.130;-117.188;2022-11-02T12:03:54;99545.41;;;15.34;74.33
37848;BME280;23688;33.130;-117.188;2022-11-02T12:06:51;99542.72;;;15.33;74.30
37848;BME280;23688;33.130;-117.188;2022-11-02T12:09:33;99541.97;;;15.37;73.70
37848;BME280;23688;33.130;-117.188;2022-11-02T12:28:18;99545.94;;;15.60;73.45
37848;BME280;23688;33.130;-117.188;2022-11-02T12:38:55;99551.19;;;15.59;73.15
37848;BME280;23688;33.130;-117.188;2022-11-02T12:42:01;99553.84;;;15.62;73.02
37848;BME280;23688;33.130;-117.188;2022-11-02T12:44:43;99557.44;;;15.66;72.99
37848;BME280;23688;33.130;-117.188;2022-11-02T12:55:47;99552.34;;;15.72;72.09
37848;BME280;23688;33.130;-117.188;2022-11-02T13:01:36;99542.19;;;15.46;72.01
37848;BME280;23688;33.130;-117.188;2022-11-02T13:06:48;99541.16;;;15.39;72.45
37848;BME280;23688;33.130;-117.188;2022-11-02T13:09:27;99538.47;;;15.36;72.91
37848;BME280;23688;33.130;-117.188;2022-11-02T13:12:04;99544.69;;;15.41;72.75
37848;BME280;23688;33.130;-117.188;2022-11-02T13:14:53;99535.84;;;15.36;72.82
37848;BME280;23688;33.130;-117.188;2022-11-02T13:20:17;99544.31;;;15.26;72.75
37848;BME280;23688;33.130;-117.188;2022-11-02T13:23:02;99532.03;;;15.24;72.65
37848;BME280;23688;33.130;-117.188;2022-11-02T13:25:39;99528.34;;;15.14;72.90
37848;BME280;23688;33.130;-117.188;2022-11-02T13:28:18;99541.34;;;15.11;73.38
37848;BME280;23688;33.130;-117.188;2022-11-02T13:30:50;99539.47;;;15.05;73.87
37848;BME280;23688;33.130;-117.188;2022-11-02T13:33:24;99529.72;;;14.98;74.08
37848;BME280;23688;33.130;-117.188;2022-11-02T13:35:52;99536.69;;;14.99;74.28
37848;BME280;23688;33.130;-117.188;2022-11-02T13:38:39;99539.78;;;15.17;74.05
37848;BME280;23688;33.130;-117.188;2022-11-02T13:43:53;99541.13;;;15.02;75.74
37848;BME280;23688;33.130;-117.188;2022-11-02T13:49:25;99549.22;;;14.77;78.24
37848;BME280;23688;33.130;-117.188;2022-11-02T13:52:00;99551.34;;;14.58;81.59
37848;BME280;23688;33.130;-117.188;2022-11-02T13:54:43;99540.09;;;14.60;82.13
37848;BME280;23688;33.130;-117.188;2022-11-02T13:57:51;99544.69;;;14.69;83.32
37848;BME280;23688;33.130;-117.188;2022-11-02T14:03:04;99561.28;;;14.71;85.58
37848;BME280;23688;33.130;-117.188;2022-11-02T14:05:47;99567.66;;;14.50;87.31
37848;BME280;23688;33.130;-117.188;2022-11-02T14:08:22;99561.50;;;14.48;89.49
37848;BME280;23688;33.130;-117.188;2022-11-02T14:19:49;99557.28;;;13.60;98.68
37848;BME280;23688;33.130;-117.188;2022-11-02T14:22:17;99555.75;;;13.66;99.50
37848;BME280;23688;33.130;-117.188;2022-11-02T14:29:48;99568.50;;;13.86;100.00
37848;BME280;23688;33.130;-117.188;2022-11-02T14:43:18;99584.06;;;13.83;100.00
37848;BME280;23688;33.130;-117.188;2022-11-02T14:49:18;99596.97;;;14.08;100.00
37848;BME280;23688;33.130;-117.188;2022-11-02T14:51:59;99599.94;;;14.21;100.00
37848;BME280;23688;33.130;-117.188;2022-11-02T14:54:27;99609.28;;;14.12;100.00
37848;BME280;23688;33.130;-117.188;2022-11-02T14:57:13;99601.69;;;13.90;100.00
37848;BME280;23688;33.130;-117.188;2022-11-02T14:59:47;99616.19;;;14.10;100.00
37848;BME280;23688;33.130;-117.188;2022-11-02T15:04:56;99626.19;;;14.25;100.00
37848;BME280;23688;33.130;-117.188;2022-11-02T15:07:48;99619.56;;;14.37;100.00
37848;BME280;23688;33.130;-117.188;2022-11-02T15:12:43;99640.34;;;14.33;100.00
37848;BME280;23688;33.130;-117.188;2022-11-02T15:20:28;99653.66;;;14.41;100.00
37848;BME280;23688;33.130;-117.188;2022-11-02T15:23:15;99647.47;;;14.39;100.00
37848;BME280;23688;33.130;-117.188;2022-11-02T15:25:52;99641.00;;;14.26;100.00